createdAt,value
2018-04-19T00:01:25.169Z,36.60
2018-04-19T00:03:54.305Z,32.33
2018-04-19T00:06:23.419Z,31.57
2018-04-19T00:08:52.819Z,31.37
2018-04-19T00:11:22.001Z,33.57
2018-04-19T00:13:51.124Z,38.43
2018-04-19T00:16:20.504Z,29.47
2018-04-19T00:18:49.623Z,34.90
2018-04-19T00:21:18.754Z,34.87
2018-04-19T00:23:48.262Z,34.30
2018-04-19T00:26:17.410Z,35.33
2018-04-19T00:28:46.536Z,33.57
2018-04-19T00:31:15.961Z,35.80
2018-04-19T00:33:45.111Z,36.83
2018-04-19T00:36:14.254Z,33.30
2018-04-19T00:38:43.385Z,35.63
2018-04-19T00:41:12.580Z,37.47
2018-04-19T00:43:41.721Z,35.87
2018-04-19T00:46:11.241Z,35.90
2018-04-19T00:48:40.362Z,33.57
2018-04-19T00:51:09.512Z,36.10
2018-04-19T00:53:38.641Z,37.50
2018-04-19T00:56:07.782Z,33.43
2018-04-19T00:58:36.901Z,36.00
2018-04-19T01:01:06.329Z,38.37
2018-04-19T01:03:35.465Z,38.40
2018-04-19T01:06:04.608Z,35.07
2018-04-19T01:08:33.773Z,36.60
2018-04-19T01:11:02.903Z,43.60
2018-04-19T01:13:32.026Z,39.40
2018-04-19T01:16:01.194Z,40.37
2018-04-19T01:18:30.310Z,38.20
2018-04-19T01:20:59.435Z,39.30
2018-04-19T01:23:28.947Z,43.50
2018-04-19T01:25:58.054Z,40.03
2018-04-19T01:28:27.170Z,36.83
2018-04-19T01:30:56.696Z,38.43
2018-04-19T01:33:25.926Z,40.77
2018-04-19T01:36:00.872Z,41.33
2018-04-19T01:38:30.032Z,37.60
2018-04-19T01:40:59.120Z,37.43
2018-04-19T01:43:28.492Z,43.90
2018-04-19T01:45:57.648Z,39.70
2018-04-19T01:48:26.769Z,39.93
2018-04-19T01:50:56.373Z,39.73
2018-04-19T01:53:25.513Z,42.70
2018-04-19T01:55:54.741Z,45.20
2018-04-19T01:58:23.884Z,40.70
2018-04-19T02:00:53.012Z,46.35
2018-04-19T02:03:22.141Z,46.17
2018-04-19T02:05:51.603Z,41.10
2018-04-19T02:08:20.736Z,39.63
2018-04-19T02:10:49.881Z,48.10
2018-04-19T02:13:19.009Z,48.90
2018-04-19T02:15:48.138Z,42.70
2018-04-19T02:18:17.263Z,40.70
2018-04-19T02:20:46.791Z,44.57
2018-04-19T02:23:15.925Z,46.30
2018-04-19T02:25:45.121Z,49.92
2018-04-19T02:28:14.336Z,48.63
2018-04-19T02:30:43.459Z,44.87
2018-04-19T02:33:12.596Z,43.83
2018-04-19T02:35:42.074Z,44.80
2018-04-19T02:38:11.153Z,40.90
2018-04-19T02:40:40.288Z,46.42
2018-04-19T02:43:09.440Z,44.50
2018-04-19T02:45:38.689Z,45.80
2018-04-19T02:48:07.813Z,44.03
2018-04-19T02:50:37.356Z,59.80
2018-04-19T02:53:06.404Z,43.20
2018-04-19T02:55:35.573Z,44.75
2018-04-19T02:58:04.702Z,45.97
2018-04-19T03:00:33.833Z,45.25
2018-04-19T03:03:02.966Z,44.08
2018-04-19T03:05:32.100Z,46.30
2018-04-19T03:08:01.248Z,43.83
2018-04-19T03:10:30.379Z,53.22
2018-04-19T03:12:59.821Z,45.78
2018-04-19T03:15:28.965Z,45.60
2018-04-19T03:17:58.101Z,45.33
2018-04-19T03:20:27.635Z,40.95
2018-04-19T03:22:56.772Z,43.00
2018-04-19T03:25:25.893Z,52.35
2018-04-19T03:27:55.314Z,46.05
2018-04-19T03:30:24.441Z,44.78
2018-04-19T03:32:53.574Z,44.60
2018-04-19T03:35:23.141Z,44.17
2018-04-19T03:37:52.257Z,47.45
2018-04-19T03:40:21.383Z,44.72
2018-04-19T03:42:50.513Z,46.03
2018-04-19T03:45:19.651Z,42.90
2018-04-19T03:47:48.789Z,40.83
2018-04-19T03:50:18.405Z,44.30
2018-04-19T03:52:47.634Z,45.47
2018-04-19T03:55:16.769Z,52.47
2018-04-19T03:57:46.023Z,48.40
2018-04-19T04:00:15.141Z,44.05
2018-04-19T04:02:44.284Z,40.72
2018-04-19T04:05:13.782Z,45.30
2018-04-19T04:07:43.020Z,42.38
2018-04-19T04:10:12.150Z,45.50
2018-04-19T04:12:41.693Z,45.67
2018-04-19T04:15:10.838Z,42.92
2018-04-19T04:17:46.259Z,45.70
2018-04-19T04:20:21.153Z,45.83
2018-04-19T04:22:56.080Z,46.55
2018-04-19T04:25:25.225Z,45.28
2018-04-19T04:27:54.399Z,44.97
2018-04-19T04:30:23.810Z,44.33
2018-04-19T04:32:52.934Z,46.15
2018-04-19T04:35:22.161Z,39.90
2018-04-19T04:37:51.577Z,45.55
2018-04-19T04:40:20.734Z,52.70
2018-04-19T04:42:49.873Z,46.42
2018-04-19T04:45:19.373Z,49.55
2018-04-19T04:47:48.555Z,42.72
2018-04-19T04:50:17.629Z,45.12
2018-04-19T04:52:46.758Z,48.22
2018-04-19T04:55:15.892Z,41.53
2018-04-19T04:57:45.054Z,43.80
2018-04-19T05:00:14.592Z,41.97
2018-04-19T05:02:43.739Z,44.03
2018-04-19T05:05:12.877Z,42.78
2018-04-19T05:07:42.017Z,45.17
2018-04-19T05:10:11.141Z,40.80
2018-04-19T05:12:40.274Z,46.05
2018-04-19T05:15:09.747Z,45.83
2018-04-19T05:17:38.867Z,46.15
2018-04-19T05:20:07.995Z,52.45
2018-04-19T05:22:37.574Z,39.53
2018-04-19T05:25:06.775Z,41.47
2018-04-19T05:27:35.947Z,42.97
2018-04-19T05:30:05.119Z,43.00
2018-04-19T05:32:34.363Z,44.00
2018-04-19T05:35:03.496Z,45.30
2018-04-19T05:37:33.048Z,40.70
2018-04-19T05:40:02.185Z,38.25
2018-04-19T05:42:31.343Z,43.03
2018-04-19T05:45:00.830Z,34.17
2018-04-19T05:47:29.951Z,36.93
2018-04-19T05:49:59.081Z,33.57
2018-04-19T05:52:28.254Z,38.80
2018-04-19T05:54:57.383Z,34.27
2018-04-19T05:57:26.507Z,32.77
2018-04-19T05:59:56.017Z,35.13
2018-04-19T06:15:34.935Z,38.60
2018-04-19T06:18:04.055Z,31.27
2018-04-19T06:20:33.213Z,35.67
2018-04-19T06:23:02.726Z,32.97
2018-04-19T06:25:31.854Z,34.50
2018-04-19T06:28:00.987Z,30.00
2018-04-19T06:30:31.320Z,30.40
2018-04-19T06:33:00.465Z,29.53
2018-04-19T06:35:29.583Z,31.10
2018-04-19T06:37:59.038Z,29.23
2018-04-19T06:40:28.214Z,32.90
2018-04-19T06:42:57.352Z,31.10
2018-04-19T06:45:26.827Z,27.83
2018-04-19T06:47:56.062Z,28.30
2018-04-19T06:50:25.256Z,27.23
2018-04-19T06:52:54.726Z,27.30
2018-04-19T06:55:23.859Z,24.73
2018-04-19T06:57:53.486Z,26.03
2018-04-19T07:00:22.918Z,25.87
2018-04-19T07:02:52.085Z,29.17
2018-04-19T07:05:21.233Z,26.77
2018-04-19T07:07:50.386Z,28.53
2018-04-19T07:10:19.518Z,32.50
2018-04-19T07:12:48.810Z,80.00
2018-04-19T07:15:18.329Z,29.40
2018-04-19T07:17:47.445Z,26.30
2018-04-19T07:20:16.650Z,25.97
2018-04-19T07:22:45.889Z,24.10
2018-04-19T07:25:15.030Z,24.97
2018-04-19T07:27:44.190Z,25.30
2018-04-19T07:30:13.332Z,23.83
2018-04-19T07:32:42.500Z,25.53
2018-04-19T07:35:11.728Z,26.87
2018-04-19T07:37:41.209Z,24.23
2018-04-19T07:40:10.364Z,24.93
2018-04-19T07:42:39.496Z,23.83
2018-04-19T07:45:09.042Z,23.50
2018-04-19T07:47:38.271Z,25.80
2018-04-19T07:50:07.422Z,22.57
2018-04-19T07:52:36.581Z,22.33
2018-04-19T07:55:05.724Z,23.20
2018-04-19T07:57:34.873Z,21.43
2018-04-19T08:00:04.115Z,24.77
2018-04-19T08:02:33.600Z,22.27
2018-04-19T08:05:02.814Z,23.23
2018-04-19T08:07:32.278Z,21.40
2018-04-19T08:10:01.528Z,23.00
2018-04-19T08:12:30.669Z,22.00
2018-04-19T08:15:00.097Z,20.63
2018-04-19T08:17:29.317Z,21.00
2018-04-19T08:19:58.441Z,19.00
2018-04-19T08:22:27.873Z,20.03
2018-04-19T08:24:57.055Z,20.00
2018-04-19T08:27:26.189Z,18.93
2018-04-19T08:29:55.692Z,21.33
2018-04-19T08:32:24.822Z,21.30
2018-04-19T08:34:53.966Z,22.20
2018-04-19T08:37:23.510Z,20.40
2018-04-19T08:39:52.644Z,18.57
2018-04-19T08:42:21.881Z,18.17
2018-04-19T08:44:51.401Z,19.70
2018-04-19T08:47:20.555Z,18.17
2018-04-19T08:49:49.711Z,18.87
2018-04-19T08:52:18.917Z,19.57
2018-04-19T08:54:48.091Z,16.57
2018-04-19T08:57:17.212Z,17.03
2018-04-19T08:59:46.772Z,19.10
2018-04-19T09:02:15.925Z,18.97
2018-04-19T09:04:45.113Z,17.93
2018-04-19T09:07:14.570Z,18.30
2018-04-19T09:09:43.708Z,18.30
2018-04-19T09:12:12.861Z,18.70
2018-04-19T09:14:42.001Z,19.17
2018-04-19T09:17:11.129Z,17.83
2018-04-19T09:19:40.373Z,19.00
2018-04-19T09:22:09.854Z,16.60
2018-04-19T09:24:38.971Z,19.10
2018-04-19T09:27:08.098Z,19.43
2018-04-19T09:29:37.539Z,18.50
2018-04-19T09:32:06.663Z,17.83
2018-04-19T09:34:35.776Z,24.10
2018-04-19T09:37:04.932Z,18.30
2018-04-19T09:39:34.066Z,17.93
2018-04-19T09:42:03.225Z,18.27
2018-04-19T09:44:32.658Z,17.47
2018-04-19T09:47:01.852Z,19.57
2018-04-19T09:49:30.974Z,19.67
2018-04-19T09:52:00.439Z,18.67
2018-04-19T09:54:29.569Z,19.27
2018-04-19T09:56:58.706Z,18.77
2018-04-19T09:59:28.146Z,18.50
2018-04-19T10:02:02.998Z,19.00
2018-04-19T10:04:34.059Z,18.37
2018-04-19T10:07:03.200Z,16.63
2018-04-19T10:09:32.332Z,19.93
2018-04-19T10:12:01.513Z,20.30
2018-04-19T10:14:30.630Z,16.90
2018-04-19T10:16:59.762Z,17.80
2018-04-19T10:19:28.921Z,16.80
2018-04-19T10:21:58.099Z,17.03
2018-04-19T10:24:27.241Z,16.60
2018-04-19T10:26:56.436Z,17.83
2018-04-19T10:29:26.091Z,16.43
2018-04-19T10:31:55.215Z,16.00
2018-04-19T10:34:24.766Z,14.20
2018-04-19T10:36:53.907Z,13.03
2018-04-19T10:39:23.019Z,14.63
2018-04-19T10:41:52.413Z,14.10
2018-04-19T10:44:22.378Z,14.70
2018-04-19T10:46:51.542Z,14.33
2018-04-19T10:49:21.077Z,14.57
2018-04-19T10:51:50.208Z,16.13
2018-04-19T10:54:19.340Z,16.60
2018-04-19T10:56:48.770Z,14.40
2018-04-19T10:59:17.945Z,16.83
2018-04-19T11:01:47.096Z,15.60
2018-04-19T11:04:16.515Z,16.87
2018-04-19T11:06:45.662Z,19.30
2018-04-19T11:09:14.812Z,15.10
2018-04-19T11:11:44.364Z,16.80
2018-04-19T11:14:13.538Z,15.80
2018-04-19T11:16:43.501Z,17.97
2018-04-19T11:19:12.641Z,15.80
2018-04-19T11:21:41.792Z,23.03
2018-04-19T11:24:10.915Z,17.53
2018-04-19T11:26:40.362Z,18.50
2018-04-19T11:29:09.499Z,15.70
2018-04-19T11:31:38.641Z,21.17
2018-04-19T11:34:08.061Z,21.20
2018-04-19T11:36:37.317Z,19.00
2018-04-19T11:39:06.445Z,21.87
2018-04-19T11:41:35.600Z,23.73
2018-04-19T11:44:04.730Z,23.60
2018-04-19T11:46:33.896Z,23.37
2018-04-19T11:49:03.334Z,22.43
2018-04-19T11:51:32.478Z,21.83
2018-04-19T11:54:01.652Z,24.23
2018-04-19T11:56:30.850Z,22.40
2018-04-19T11:58:59.975Z,23.10
2018-04-19T12:01:29.114Z,23.13
2018-04-19T12:03:58.560Z,22.80
2018-04-19T12:06:27.678Z,20.67
2018-04-19T12:08:56.825Z,21.33
2018-04-19T12:11:26.330Z,21.40
2018-04-19T12:13:55.483Z,20.37
2018-04-19T12:16:24.601Z,22.03
2018-04-19T12:18:53.754Z,20.63
2018-04-19T12:21:22.891Z,19.30
2018-04-19T12:23:52.032Z,15.80
2018-04-19T12:26:21.522Z,18.80
2018-04-19T12:28:50.658Z,18.47
2018-04-19T12:31:19.778Z,21.03
2018-04-19T12:33:48.929Z,20.40
2018-04-19T12:36:18.080Z,18.00
2018-04-19T12:38:47.213Z,18.07
2018-04-19T12:41:16.705Z,21.53
2018-04-19T12:43:45.850Z,21.60
2018-04-19T12:46:15.004Z,24.03
2018-04-19T12:48:44.425Z,21.50
2018-04-19T12:51:14.058Z,21.27
2018-04-19T12:53:43.178Z,28.80
2018-04-19T12:56:12.720Z,25.00
2018-04-19T12:58:42.270Z,24.23
2018-04-19T13:01:11.404Z,23.43
2018-04-19T13:03:40.570Z,19.33
2018-04-19T13:06:09.705Z,20.23
2018-04-19T13:08:38.853Z,19.80
2018-04-19T13:11:08.294Z,20.90
2018-04-19T13:13:37.951Z,19.70
2018-04-19T13:16:07.079Z,18.60
2018-04-19T13:18:36.237Z,20.57
2018-04-19T13:21:05.373Z,19.93
2018-04-19T13:23:34.555Z,21.83
2018-04-19T13:26:04.101Z,20.67
2018-04-19T13:28:33.315Z,20.40
2018-04-19T13:31:02.451Z,21.03
2018-04-19T13:33:31.606Z,19.20
2018-04-19T13:36:00.724Z,19.43
2018-04-19T13:38:29.852Z,17.40
2018-04-19T13:40:58.988Z,20.53
2018-04-19T13:43:28.128Z,17.53
2018-04-19T13:45:57.272Z,19.40
2018-04-19T13:48:26.682Z,18.87
2018-04-19T13:50:55.821Z,19.20
2018-04-19T13:53:24.974Z,17.17
2018-04-19T13:55:54.502Z,15.30
2018-04-19T13:58:23.633Z,17.30
2018-04-19T14:00:52.757Z,17.30
2018-04-19T14:03:22.252Z,16.03
2018-04-19T14:05:51.429Z,14.10
2018-04-19T14:08:20.593Z,14.60
2018-04-19T14:10:50.051Z,15.13
2018-04-19T14:13:19.229Z,13.73
2018-04-19T14:15:48.325Z,14.27
2018-04-19T14:18:17.782Z,15.67
2018-04-19T14:20:46.934Z,18.57
2018-04-19T14:23:16.068Z,15.83
2018-04-19T14:25:45.210Z,12.97
2018-04-19T14:28:14.349Z,15.93
2018-04-19T14:30:43.504Z,16.00
2018-04-19T14:33:13.025Z,17.30
2018-04-19T14:35:42.148Z,17.77
2018-04-19T14:38:11.276Z,17.57
2018-04-19T14:40:40.451Z,16.60
2018-04-19T14:43:09.577Z,17.33
2018-04-19T14:45:38.844Z,18.50
2018-04-19T14:48:08.321Z,16.33
2018-04-19T14:50:37.445Z,16.13
2018-04-19T14:53:06.632Z,16.77
2018-04-19T14:55:36.047Z,15.60
2018-04-19T14:58:05.171Z,15.00
2018-04-19T15:00:34.307Z,15.40
2018-04-19T15:03:03.918Z,16.40
2018-04-19T15:05:33.038Z,12.50
2018-04-19T15:08:02.190Z,12.17
2018-04-19T15:10:31.709Z,13.10
2018-04-19T15:13:00.872Z,13.30
2018-04-19T15:15:30.024Z,11.40
2018-04-19T15:17:59.563Z,14.00
2018-04-19T15:20:28.729Z,11.10
2018-04-19T15:25:33.475Z,10.43
2018-04-19T15:28:02.605Z,10.80
2018-04-19T15:30:31.761Z,13.47
2018-04-19T15:33:01.292Z,8.17
2018-04-19T15:35:30.422Z,9.70
2018-04-19T15:37:59.529Z,7.90
2018-04-19T15:40:29.133Z,8.37
2018-04-19T15:42:58.244Z,8.23
2018-04-19T15:45:27.385Z,7.07
2018-04-19T15:47:57.027Z,6.57
2018-04-19T15:50:26.098Z,8.50
2018-04-19T15:52:55.238Z,4.70
2018-04-19T15:55:24.724Z,4.37
2018-04-19T15:57:53.837Z,3.83
2018-04-19T16:00:22.954Z,4.20
2018-04-19T16:02:52.081Z,4.33
2018-04-19T16:05:21.206Z,4.90
2018-04-19T16:07:50.328Z,3.77
2018-04-19T16:10:19.721Z,3.33
2018-04-19T16:12:48.870Z,4.43
2018-04-19T16:15:18.035Z,4.17
2018-04-19T16:17:47.460Z,7.63
2018-04-19T16:20:16.578Z,6.20
2018-04-19T16:22:45.681Z,3.97
2018-04-19T16:25:15.194Z,4.70
2018-04-19T16:27:44.324Z,4.47
2018-04-19T16:30:13.528Z,4.90
2018-04-19T16:32:43.026Z,5.97
2018-04-19T16:35:12.149Z,5.17
2018-04-19T16:37:41.285Z,4.37
2018-04-19T16:40:10.715Z,5.07
2018-04-19T16:42:39.833Z,7.73
2018-04-19T16:45:09.005Z,5.70
2018-04-19T16:47:38.479Z,6.40
2018-04-19T16:50:07.702Z,5.03
2018-04-19T16:52:36.806Z,8.93
2018-04-19T16:55:06.271Z,6.57
2018-04-19T16:57:35.406Z,3.87
2018-04-19T17:00:04.578Z,5.60
2018-04-19T17:02:34.087Z,5.93
2018-04-19T17:05:03.198Z,5.10
2018-04-19T17:07:32.319Z,7.07
2018-04-19T17:10:01.803Z,8.97
2018-04-19T17:12:30.985Z,5.47
2018-04-19T17:15:00.103Z,8.40
2018-04-19T17:17:29.558Z,4.90
2018-04-19T17:19:58.666Z,7.40
2018-04-19T17:22:27.789Z,8.70
2018-04-19T17:24:57.257Z,9.07
2018-04-19T17:27:26.381Z,4.90
2018-04-19T17:29:55.509Z,5.70
2018-04-19T17:32:24.783Z,39.43
2018-04-19T17:34:53.927Z,42.00
2018-04-19T17:37:23.073Z,39.50
2018-04-19T17:39:52.937Z,42.30
2018-04-19T17:42:22.105Z,41.87
2018-04-19T17:44:51.485Z,44.00
2018-04-19T17:47:20.889Z,47.80
2018-04-19T17:49:50.038Z,43.97
2018-04-19T17:52:20.070Z,49.47
2018-04-19T17:54:49.465Z,42.30
2018-04-19T17:57:18.653Z,47.53
2018-04-19T17:59:47.800Z,40.90
2018-04-19T18:02:17.273Z,45.43
2018-04-19T18:04:46.418Z,45.27
2018-04-19T18:07:15.549Z,51.93
2018-04-19T18:09:45.070Z,53.67
2018-04-19T18:12:15.191Z,46.80
2018-04-19T18:14:44.322Z,50.17
2018-04-19T18:17:13.484Z,45.40
2018-04-19T18:19:42.705Z,45.60
2018-04-19T18:22:11.855Z,52.90
2018-04-19T18:24:41.393Z,49.70
2018-04-19T18:27:10.533Z,44.90
2018-04-19T18:29:39.646Z,52.87
2018-04-19T18:32:09.050Z,48.63
2018-04-19T18:34:38.193Z,48.43
2018-04-19T18:37:07.330Z,46.07
2018-04-19T18:39:36.813Z,47.20
2018-04-19T18:42:05.930Z,45.50
2018-04-19T18:44:35.090Z,48.67
2018-04-19T18:47:04.563Z,50.60
2018-04-19T18:49:33.708Z,46.67
2018-04-19T18:52:02.837Z,49.13
2018-04-19T18:54:31.982Z,52.40
2018-04-19T18:57:01.103Z,47.97
2018-04-19T18:59:30.214Z,47.90
2018-04-19T19:01:59.645Z,47.50
2018-04-19T19:04:28.833Z,47.27
2018-04-19T19:06:57.981Z,49.20
2018-04-19T19:09:27.448Z,53.10
2018-04-19T19:11:57.470Z,50.93
2018-04-19T19:14:27.398Z,52.63
2018-04-19T19:16:56.530Z,57.13
2018-04-19T19:19:31.635Z,56.07
2018-04-19T19:22:01.220Z,51.90
2018-04-19T19:24:30.353Z,48.97
2018-04-19T19:26:59.482Z,52.93
2018-04-19T19:29:28.629Z,49.30
2018-04-19T19:31:57.801Z,49.93
2018-04-19T19:34:27.393Z,51.13
2018-04-19T19:36:56.573Z,50.27
2018-04-19T19:39:25.723Z,49.23
2018-04-19T19:44:30.813Z,53.47
2018-04-19T19:46:59.942Z,50.53
2018-04-19T19:49:29.070Z,50.07
2018-04-19T19:51:58.968Z,48.60
2018-04-19T19:54:28.391Z,50.70
2018-04-19T19:56:57.555Z,48.93
2018-04-19T19:59:27.322Z,49.87
2018-04-19T20:01:56.483Z,49.40
2018-04-19T20:04:25.605Z,48.27
2018-04-19T20:06:54.751Z,52.07
2018-04-19T20:09:24.245Z,55.17
2018-04-19T20:11:53.397Z,55.60
2018-04-19T20:14:22.519Z,50.47
2018-04-19T20:16:51.666Z,51.67
2018-04-19T20:19:20.791Z,51.70
2018-04-19T20:21:49.937Z,59.03
2018-04-19T20:24:19.086Z,51.20
2018-04-19T20:26:48.229Z,52.20
2018-04-19T20:29:17.382Z,52.47
2018-04-19T20:31:46.896Z,51.87
2018-04-19T20:34:16.018Z,59.70
2018-04-19T20:36:45.252Z,66.30
2018-04-19T20:39:14.385Z,56.70
2018-04-19T20:41:43.532Z,54.30
2018-04-19T20:44:12.655Z,54.87
2018-04-19T20:46:42.058Z,57.23
2018-04-19T20:49:11.199Z,54.97
2018-04-19T20:51:40.337Z,58.40
2018-04-19T20:54:10.440Z,55.87
2018-04-19T20:56:39.577Z,56.77
2018-04-19T20:59:08.712Z,57.87
2018-04-19T21:01:38.127Z,55.47
2018-04-19T21:04:07.269Z,56.43
2018-04-19T21:06:36.422Z,55.33
2018-04-19T21:09:05.849Z,60.70
2018-04-19T21:11:34.988Z,57.33
2018-04-19T21:14:04.121Z,55.60
2018-04-19T21:16:33.533Z,54.37
2018-04-19T21:19:02.660Z,56.33
2018-04-19T21:21:31.789Z,55.97
2018-04-19T21:24:01.176Z,54.27
2018-04-19T21:26:30.326Z,58.60
2018-04-19T21:28:59.446Z,55.77
2018-04-19T21:31:28.609Z,55.00
2018-04-19T21:33:57.760Z,55.40
2018-04-19T21:36:26.896Z,50.77
2018-04-19T21:38:56.381Z,50.50
2018-04-19T21:41:25.531Z,51.20
2018-04-19T21:43:54.903Z,61.37
2018-04-19T21:46:24.386Z,55.33
2018-04-19T21:48:53.521Z,56.67
2018-04-19T21:51:22.658Z,54.10
2018-04-19T21:53:52.161Z,49.87
2018-04-19T21:56:21.297Z,56.10
2018-04-19T21:58:50.446Z,54.60
2018-04-19T22:01:19.858Z,54.30
2018-04-19T22:03:48.987Z,56.40
2018-04-19T22:06:18.324Z,56.57
2018-04-19T22:08:47.784Z,53.77
2018-04-19T22:11:17.445Z,51.90
2018-04-19T22:13:46.570Z,58.50
2018-04-19T22:16:15.697Z,58.47
2018-04-19T22:18:45.435Z,56.93
2018-04-19T22:21:14.558Z,55.13
2018-04-19T22:23:44.077Z,57.63
2018-04-19T22:26:13.307Z,51.97
2018-04-19T22:28:42.446Z,53.07
2018-04-19T22:31:11.873Z,55.53
2018-04-19T22:33:41.120Z,57.47
2018-04-19T22:36:10.248Z,56.37
2018-04-19T22:38:39.806Z,57.00
2018-04-19T22:41:08.930Z,53.20
2018-04-19T22:43:38.045Z,57.47
2018-04-19T22:46:07.914Z,55.80
2018-04-19T22:48:37.026Z,53.83
2018-04-19T22:51:06.495Z,53.87
2018-04-19T22:53:35.679Z,55.33
2018-04-19T22:56:04.766Z,55.63
2018-04-19T22:58:33.888Z,56.90
2018-04-19T23:01:03.678Z,52.20
2018-04-19T23:03:32.810Z,59.03
2018-04-19T23:06:01.934Z,64.43
2018-04-19T23:08:31.095Z,58.47
2018-04-19T23:11:00.267Z,59.27
2018-04-19T23:13:29.353Z,55.77
2018-04-19T23:15:58.866Z,57.80
2018-04-19T23:18:27.983Z,61.80
2018-04-19T23:20:57.107Z,53.07
2018-04-19T23:23:26.241Z,55.73
2018-04-19T23:25:56.134Z,57.13
2018-04-19T23:28:26.487Z,56.10
2018-04-19T23:30:55.637Z,55.83
2018-04-19T23:33:24.745Z,64.93
2018-04-19T23:35:54.278Z,57.20
2018-04-19T23:38:23.394Z,57.70
2018-04-19T23:40:52.517Z,59.83
2018-04-19T23:43:22.005Z,58.93
2018-04-19T23:45:51.128Z,71.37
2018-04-19T23:48:20.245Z,56.07
2018-04-19T23:50:49.392Z,56.83
2018-04-19T23:53:18.538Z,60.40
2018-04-19T23:55:47.657Z,61.53
2018-04-19T23:58:17.412Z,59.70
